• Join FlightAware (Why Join?)
  • Login
  • US Flag 
08:28PM EST


 

Airport Tracker/Info


-or-


 

Live Flight TrackerFlight Track Log ✈ N960DL ✈ 26-Apr-2013 ✈ KDAY - KATL

Flight Track Log - Related Links

Times and Time Zones

All times are in EDT time to prevent confusion due to time zone crossing. See the N960DL flight status page for this flight to view local times or setup timezone preferences in your user account.

Time Position Orientation Groundspeed Altitude Reporting Facility
EDT Latitude Longitude Course Direction KTS MPH feet Rate Location/Type
07:11AM 39.8964 -84.2442 180° South 154 177 1,800  Level Indianapolis Center
07:11AM 39.8842 -84.2669 235° Southwest 166 191 2,600 1,620 Climbing Indianapolis Center
07:12AM 39.8700 -84.2914 233° Southwest 205 236 3,400 2,760 Climbing Indianapolis Center
07:13AM 39.6971 -84.5456 241° Southwest  Level FlightAware Approximate
07:13AM 39.8264 -84.3667 233° Southwest 246 283 7,000  Level Indianapolis Center
07:14AM 39.6378 -84.6647 232° Southwest  Level FlightAware Approximate
07:14AM 39.7650 -84.4544 228° Southwest 273 314 10,700  Level Indianapolis Center
07:15AM 39.5416 -84.7000 180° South  Level FlightAware Approximate
07:15AM 39.6686 -84.4878 195° South 350 403 12,000  Level Indianapolis Center
07:16AM 39.4321 -84.7000 180° South  Level FlightAware Approximate
07:16AM 39.5608 -84.5258 195° South 390 449 15,000  Level Indianapolis Center
07:17AM 39.4506 -84.5619 194° South 403 464 18,000 2,340 Climbing Indianapolis Center
07:18AM 39.3372 -84.5983 194° South 413 475 19,800 1,620 Climbing Indianapolis Center
07:19AM 39.2197 -84.6383 195° South 429 494 21,400 1,620 Climbing Indianapolis Center
07:20AM 39.0967 -84.6789 194° South 448 516 23,200 1,860 Climbing Indianapolis Center
07:21AM 38.9767 -84.7367 201° Southwest 458 527 25,300 2,220 Climbing Indianapolis Center
07:22AM 38.8728 -84.8281 214° Southwest 432 497 27,800 2,220 Climbing Indianapolis Center
07:23AM 38.7747 -84.9122 214° Southwest 423 487 29,900 1,860 Climbing Indianapolis Center
07:24AM 38.6769 -84.9947 213° Southwest 417 480 31,700 1,260 Climbing Indianapolis Center
07:25AM 38.5889 -85.0711 214° Southwest 407 468 32,600 1,200 Climbing Indianapolis Center
07:26AM 38.4792 -85.1642 214° Southwest 407 468 34,200 1,140 Climbing Indianapolis Center
07:27AM 38.3917 -85.2386 214° Southwest 396 456 35,000 360 Climbing Indianapolis Center
07:28AM 38.3014 -85.3156 214° Southwest 389 448 35,000  Level Indianapolis Center
07:29AM 38.2086 -85.3939 214° Southwest 396 456 35,000  Level Indianapolis Center
07:30AM 38.1167 -85.4722 214° Southwest 395 455 35,000  Level Indianapolis Center
07:31AM 38.0236 -85.5503 213° Southwest 396 456 35,000  Level Indianapolis Center
07:32AM 37.9306 -85.6275 213° Southwest 397 457 35,000  Level Indianapolis Center
07:33AM 37.8372 -85.7050 213° Southwest 397 457 35,000  Level Indianapolis Center
07:34AM 37.7439 -85.7831 213° Southwest 399 459 35,000  Level Indianapolis Center
07:35AM 37.6519 -85.8586 213° Southwest 395 455 35,000  Level Indianapolis Center
07:36AM 37.5447 -85.9481 213° Southwest 398 458 35,000  Level Indianapolis Center
07:37AM 37.4508 -86.0264 214° Southwest 400 460 35,000  Level Indianapolis Center
07:38AM 37.3564 -86.1025 213° Southwest 400 460 35,000  Level Indianapolis Center
07:39AM 37.2736 -86.1683 212° Southwest 408 470 35,000  Level Memphis Center
07:40AM 37.1783 -86.2461 213° Southwest 408 470 35,000  Level Memphis Center
07:41AM 37.0869 -86.3211 213° Southwest 402 463 35,000  Level Memphis Center
07:42AM 36.9936 -86.3961 213° Southwest 402 463 35,000  Level Memphis Center
07:43AM 36.8847 -86.4456 200° South 402 463 35,000  Level Memphis Center
07:44AM 36.7575 -86.4386 177° South 448 516 35,000  Level Memphis Center
07:45AM 36.6444 -86.4286 176° South 457 526 35,000  Level Memphis Center
07:46AM 36.5172 -86.4219 178° South 470 541 35,000 -480 Level Memphis Center
07:47AM 36.3897 -86.4100 176° South 465 535 34,100 -1,020 Descending Memphis Center
07:48AM 36.2622 -86.4033 178° South 465 535 33,000 -600 Descending Memphis Center
07:49AM 36.1203 -86.3922 176° South 465 535 33,000  Level Memphis Center
07:50AM 35.9928 -86.3856 178° South 465 535 33,000  Level Memphis Center
07:51AM 35.8653 -86.3764 177° South 465 535 33,000  Level Memphis Center
07:53AM 35.6517 -86.2981 163° South 472 543 33,000  Level Atlanta Center
07:54AM 35.5408 -86.2031 145° Southeast 477 549 33,000  Level Atlanta Center
07:55AM 35.4256 -86.1108 147° Southeast 491 565 33,000 -240 Level Atlanta Center
07:56AM 35.3142 -86.0214 147° Southeast 491 565 32,600 -600 Descending Atlanta Center
07:57AM 35.2008 -85.9322 147° Southeast 491 565 31,800 -900 Descending Atlanta Center
07:58AM 35.0894 -85.8436 147° Southeast 491 565 30,900 -1,080 Descending Atlanta Center
07:59AM 34.9761 -85.7525 147° Southeast 491 565 29,700 -1,200 Descending Atlanta Center
08:00AM 34.8606 -85.6614 147° Southeast 491 565 28,600 -1,440 Descending Atlanta Center
08:01AM 34.7489 -85.5683 146° Southeast 491 565 26,900 -1,320 Descending Atlanta Center
08:02AM 34.6353 -85.4753 146° Southeast 491 565 26,000 -2,100 Descending Atlanta Center
08:03AM 34.5258 -85.3850 146° Southeast 491 565 22,800 -3,600 Descending Atlanta Center
08:04AM 34.4161 -85.2928 145° Southeast 486 559 18,800 -3,300 Descending Atlanta Center
08:05AM 34.3250 -85.2183 146° Southeast 463 533 16,300 -2,160 Descending Atlanta Center
08:06AM 34.2297 -85.1392 146° Southeast 433 498 14,500 -1,620 Descending Atlanta Center
08:07AM 34.1406 -85.0628 145° Southeast 390 449 13,100 -780 Descending Atlanta Center
08:08AM 34.0661 -84.9967 144° Southeast 350 403 13,000 -780 Descending Atlanta Center
08:09AM 33.9850 -84.9533 156° South 322 371 11,600 -1,500 Descending Atlanta Center
08:10AM 33.8994 -84.9297 167° South 315 362 10,100 -1,320 Descending Atlanta Center
08:11AM 33.8142 -84.9139 171° South 315 362 9,000 -900 Descending Atlanta Center
08:12AM 33.7328 -84.9056 175° South 310 357 8,300 -1,020 Descending Atlanta Center
08:13AM 33.6536 -84.8947 174° South 297 342 7,000 -900 Descending Atlanta Center
08:13AM 33.6333 -84.8667 131° Southeast 276 318 7,000 -120 Level Atlanta TRACON
08:14AM 33.6333 -84.8000 90° East 206 237 6,900 -840 Descending Atlanta TRACON
08:15AM 33.6333 -84.7167 90° East 213 245 5,400 -1,200 Descending Atlanta TRACON
08:16AM 33.6333 -84.6667 90° East 195 224 4,500 -1,020 Descending Atlanta TRACON
08:17AM 33.6333 -84.6000 90° East 182 209 3,600 -1,020 Descending Atlanta TRACON